Precipitato Cessna nelle Marche

Area dedicata alla discussione sugli incidenti e degli inconvenienti aerei e le loro cause. Prima di intervenire in quest'area leggete con attenzione il regolamento specifico riportato nel thread iniziale

Moderatore: Staff md80.it

Rispondi
Avatar utente
AfricanEagle
Rullaggio
Rullaggio
Messaggi: 48
Iscritto il: 6 febbraio 2007, 15:29
Località: LIRL

Precipitato Cessna nelle Marche

Messaggio da AfricanEagle » 12 aprile 2010, 9:56

Happy only when flying!

Hartmann
FL 500
FL 500
Messaggi: 10617
Iscritto il: 7 marzo 2007, 9:44

Re: Precipitato Cessna nelle Marche

Messaggio da Hartmann » 12 aprile 2010, 11:35

Brutta notizia. Non si sa null'altro?

Avatar utente
lucams
01000 ft
01000 ft
Messaggi: 126
Iscritto il: 25 novembre 2008, 10:11
Località: Rome
Contatta:

Re: Precipitato Cessna nelle Marche

Messaggio da lucams » 12 aprile 2010, 14:35

L'aereo era partito, mi dicono, dall'Urbe (non ho conferme dirette).
Il meteo nella zona dell'incidente era marginale, sto cercando di reperire i metar del caso, ma li guardavo da casa e non era una giornata di volo facile.

Questo a Pescara:

9:50 AM 10.0 °C 9.0 °C 94% - 5.0 Chilometri NNO 13.0 km/h / 3.6 m/s - N/A Pioggerella debole
10:50 AM 10.0 °C 8.0 °C 87% - 10.0 Chilometri NO 9.3 km/h / 2.6 m/s - N/A Molto nuvoloso
11:50 AM 10.0 °C 7.0 °C 82% - 10.0 Chilometri ONO 9.3 km/h / 2.6 m/s - N/A Pioggerella debole
12:50 PM 11.0 °C 8.0 °C 82% - 10.0 Chilometri ONO 9.3 km/h / 2.6 m/s - N/A Molto nuvoloso
1:50 PM 11.0 °C 7.0 °C 76% - 10.0 Chilometri NO 14.8 km/h / 4.1 m/s - N/A Molto nuvoloso

(da http://www.wunderground.com)
Luca
----------------------------------------
aka Lulee of the Guild of Blades
current flying C150, C172, DA20-C1, DA40, PS28
current ratings include VP, RU, EFIS

Da mihi factum, dabo tibi ius!

Avatar utente
lucams
01000 ft
01000 ft
Messaggi: 126
Iscritto il: 25 novembre 2008, 10:11
Località: Rome
Contatta:

Re: Precipitato Cessna nelle Marche

Messaggio da lucams » 12 aprile 2010, 14:42

Di Falconara:

METAR LIPY 110750Z 23004KT 180V310 9999 FEW010 SCT015 BKN035 09/07 Q1015 RMK VIS MIN 9999
METAR LIPY 110850Z VRB08KT 9999 FEW010 SCT015 BKN030 09/07 Q1015 RMK VIS MIN 9999
METAR LIPY 110950Z 28004KT 9999 -RA FEW015 SCT020 BKN030 09/07 Q1015 RMK VIS MIN 9999
METAR LIPY 111050Z 20004KT 8000 RA FEW015 SCT020 BKN030 08/07 Q1014 RMK VIS MIN 4500SE
METAR LIPY 111150Z 29003KT 260V320 8000 RA SCT015 SCT020 BKN030 08/06 Q1014 RMK VIS MIN 8000
Luca
----------------------------------------
aka Lulee of the Guild of Blades
current flying C150, C172, DA20-C1, DA40, PS28
current ratings include VP, RU, EFIS

Da mihi factum, dabo tibi ius!

Avatar utente
Vmax
Rullaggio
Rullaggio
Messaggi: 13
Iscritto il: 11 settembre 2009, 10:59
Località: Ancona/Falconara

Re: Precipitato Cessna nelle Marche

Messaggio da Vmax » 12 aprile 2010, 15:22

La zona dell'incidente è montuosa, il territorio di Vigne (prov. di An) è alle pendici del Monte S. Vicino (1500 slm)

dal corriere adriatico, cronaca locale

Avatar utente
Luke3
FL 500
FL 500
Messaggi: 6795
Iscritto il: 4 febbraio 2005, 20:15
Località: Los Angeles, CA

Re: Precipitato Cessna nelle Marche

Messaggio da Luke3 » 12 aprile 2010, 18:29

c***o andando in aerostazione dopo il mio volo Sabato l'avevo visto parcheggiato di fronte all'hangar Diamond e mi ci ero fermato davanti, commentando su quanto fosse bello quel 182 :cry:
Esprimo il mio cordoglio per le vittime in attesa del resoconto dell'indagine ANSV

Avatar utente
JT8D
Administrator
Administrator
Messaggi: 15977
Iscritto il: 2 agosto 2005, 20:38
Località: Limbiate (MB)
Contatta:

Re: Precipitato Cessna nelle Marche

Messaggio da JT8D » 12 aprile 2010, 19:35

Confermo: decollato dall'Urbe, era diretto in Austria, a Wolfsberg. Precipitato vicino a Fabriano. C182 marche OE-DHA:

http://www.md80.it/2010/04/12/marche-ca ... tre-morti/

ANSV ha naturalmente aperto la relativa inchiesta:

http://www.ansv.it/It/Detail.asp?ID=1258

Paolo
"La corsa di decollo è una metamorfosi, una quantità di metallo che si trasforma in aeroplano per mezzo dell'aria. Ogni corsa di decollo è la nascita di un aeroplano."

Immagine

Avatar utente
cabronte
FL 500
FL 500
Messaggi: 9825
Iscritto il: 10 giugno 2008, 21:45
Località: Nelle vicinanze di MXP

Re: Precipitato Cessna nelle Marche

Messaggio da cabronte » 12 aprile 2010, 21:56

E' sempre un dolore leggere queste notizie, pace alle vittime! :cry:
Ale

Avatar utente
lucams
01000 ft
01000 ft
Messaggi: 126
Iscritto il: 25 novembre 2008, 10:11
Località: Rome
Contatta:

Re: Precipitato Cessna nelle Marche

Messaggio da lucams » 14 aprile 2010, 11:43

Purtroppo, ripensando alla giornata di sabato all'urbe, insieme all'amico che vola spesso con me, abbiamo indicato al pilota del 182 l'ubicazione dell'ufficio ENAC.

Pensare a quello che è successo mi rende triste.

Un pensiero alle vittime.
Luca
----------------------------------------
aka Lulee of the Guild of Blades
current flying C150, C172, DA20-C1, DA40, PS28
current ratings include VP, RU, EFIS

Da mihi factum, dabo tibi ius!

Rispondi